sensor_id;sensor_type;location;lat;lon;timestamp;P1;durP1;ratioP1;P2;durP2;ratioP2
71562;SDS011;59391;52.504;13.438;2023-11-25T00:00:01;7.05;;;3.60;;
71562;SDS011;59391;52.504;13.438;2023-11-25T00:02:31;7.05;;;3.90;;
71562;SDS011;59391;52.504;13.438;2023-11-25T00:04:58;6.77;;;3.77;;
71562;SDS011;59391;52.504;13.438;2023-11-25T00:07:24;7.20;;;3.78;;
71562;SDS011;59391;52.504;13.438;2023-11-25T00:09:50;6.70;;;3.53;;
71562;SDS011;59391;52.504;13.438;2023-11-25T00:12:16;10.03;;;5.03;;
71562;SDS011;59391;52.504;13.438;2023-11-25T00:14:41;8.00;;;3.60;;
71562;SDS011;59391;52.504;13.438;2023-11-25T00:17:07;7.70;;;3.90;;
71562;SDS011;59391;52.504;13.438;2023-11-25T00:19:33;5.97;;;3.10;;
71562;SDS011;59391;52.504;13.438;2023-11-25T00:21:59;6.68;;;3.15;;
71562;SDS011;59391;52.504;13.438;2023-11-25T00:24:26;7.15;;;3.97;;
71562;SDS011;59391;52.504;13.438;2023-11-25T00:26:51;8.07;;;4.20;;
71562;SDS011;59391;52.504;13.438;2023-11-25T00:29:17;10.05;;;3.95;;
71562;SDS011;59391;52.504;13.438;2023-11-25T00:34:12;6.57;;;3.47;;
71562;SDS011;59391;52.504;13.438;2023-11-25T00:36:38;9.38;;;4.15;;
71562;SDS011;59391;52.504;13.438;2023-11-25T00:39:04;7.18;;;3.53;;
71562;SDS011;59391;52.504;13.438;2023-11-25T00:41:31;7.53;;;3.78;;
71562;SDS011;59391;52.504;13.438;2023-11-25T00:43:59;7.70;;;3.42;;
71562;SDS011;59391;52.504;13.438;2023-11-25T00:46:25;7.90;;;3.60;;
71562;SDS011;59391;52.504;13.438;2023-11-25T00:48:50;8.77;;;3.80;;
71562;SDS011;59391;52.504;13.438;2023-11-25T00:51:17;6.63;;;3.85;;
71562;SDS011;59391;52.504;13.438;2023-11-25T00:53:43;6.87;;;3.83;;
71562;SDS011;59391;52.504;13.438;2023-11-25T00:56:09;9.13;;;3.70;;
71562;SDS011;59391;52.504;13.438;2023-11-25T00:58:35;7.45;;;3.42;;
71562;SDS011;59391;52.504;13.438;2023-11-25T01:01:01;7.47;;;3.40;;
71562;SDS011;59391;52.504;13.438;2023-11-25T01:03:29;5.72;;;3.72;;
71562;SDS011;59391;52.504;13.438;2023-11-25T01:05:54;8.55;;;4.43;;
71562;SDS011;59391;52.504;13.438;2023-11-25T01:08:20;5.70;;;3.30;;
71562;SDS011;59391;52.504;13.438;2023-11-25T01:10:50;6.68;;;3.00;;
71562;SDS011;59391;52.504;13.438;2023-11-25T01:13:16;7.15;;;3.35;;
71562;SDS011;59391;52.504;13.438;2023-11-25T01:15:42;5.80;;;3.43;;
71562;SDS011;59391;52.504;13.438;2023-11-25T01:18:08;5.38;;;3.22;;
71562;SDS011;59391;52.504;13.438;2023-11-25T01:20:34;5.63;;;2.90;;
71562;SDS011;59391;52.504;13.438;2023-11-25T01:23:00;8.98;;;3.80;;
71562;SDS011;59391;52.504;13.438;2023-11-25T01:25:25;7.63;;;3.37;;
71562;SDS011;59391;52.504;13.438;2023-11-25T01:27:51;6.40;;;2.95;;
71562;SDS011;59391;52.504;13.438;2023-11-25T01:30:19;6.37;;;3.27;;
71562;SDS011;59391;52.504;13.438;2023-11-25T01:32:45;5.68;;;3.70;;
71562;SDS011;59391;52.504;13.438;2023-11-25T01:35:11;5.95;;;3.20;;
71562;SDS011;59391;52.504;13.438;2023-11-25T01:37:37;4.88;;;3.05;;
71562;SDS011;59391;52.504;13.438;2023-11-25T01:40:02;6.47;;;2.43;;
71562;SDS011;59391;52.504;13.438;2023-11-25T01:42:30;6.03;;;3.22;;
71562;SDS011;59391;52.504;13.438;2023-11-25T01:44:56;7.95;;;2.85;;
71562;SDS011;59391;52.504;13.438;2023-11-25T01:47:22;5.95;;;3.20;;
71562;SDS011;59391;52.504;13.438;2023-11-25T01:49:48;5.95;;;3.13;;
71562;SDS011;59391;52.504;13.438;2023-11-25T01:52:14;4.75;;;2.63;;
71562;SDS011;59391;52.504;13.438;2023-11-25T01:54:42;7.75;;;4.05;;
71562;SDS011;59391;52.504;13.438;2023-11-25T01:57:08;4.90;;;3.17;;
71562;SDS011;59391;52.504;13.438;2023-11-25T01:59:34;6.55;;;2.95;;
71562;SDS011;59391;52.504;13.438;2023-11-25T02:01:59;7.40;;;3.30;;
71562;SDS011;59391;52.504;13.438;2023-11-25T02:04:26;7.10;;;3.20;;
71562;SDS011;59391;52.504;13.438;2023-11-25T02:06:52;7.70;;;3.35;;
71562;SDS011;59391;52.504;13.438;2023-11-25T02:09:18;4.57;;;2.47;;
71562;SDS011;59391;52.504;13.438;2023-11-25T02:11:56;5.75;;;2.90;;
71562;SDS011;59391;52.504;13.438;2023-11-25T02:14:23;7.15;;;3.20;;
71562;SDS011;59391;52.504;13.438;2023-11-25T02:16:52;5.43;;;2.73;;
71562;SDS011;59391;52.504;13.438;2023-11-25T02:19:21;9.40;;;3.10;;
71562;SDS011;59391;52.504;13.438;2023-11-25T02:21:50;7.18;;;3.17;;
71562;SDS011;59391;52.504;13.438;2023-11-25T02:24:17;5.97;;;2.72;;
71562;SDS011;59391;52.504;13.438;2023-11-25T02:26:43;7.82;;;3.03;;
71562;SDS011;59391;52.504;13.438;2023-11-25T02:29:09;6.53;;;3.33;;
71562;SDS011;59391;52.504;13.438;2023-11-25T02:31:35;6.22;;;2.90;;
71562;SDS011;59391;52.504;13.438;2023-11-25T02:34:03;7.87;;;3.70;;
71562;SDS011;59391;52.504;13.438;2023-11-25T02:36:31;6.97;;;3.30;;
71562;SDS011;59391;52.504;13.438;2023-11-25T02:38:58;6.68;;;3.30;;
71562;SDS011;59391;52.504;13.438;2023-11-25T02:41:25;6.28;;;2.83;;
71562;SDS011;59391;52.504;13.438;2023-11-25T02:43:52;7.25;;;3.10;;
71562;SDS011;59391;52.504;13.438;2023-11-25T02:46:18;5.07;;;2.90;;
71562;SDS011;59391;52.504;13.438;2023-11-25T02:48:43;5.43;;;2.90;;
71562;SDS011;59391;52.504;13.438;2023-11-25T02:51:09;5.03;;;2.75;;
71562;SDS011;59391;52.504;13.438;2023-11-25T02:53:35;6.85;;;2.78;;
71562;SDS011;59391;52.504;13.438;2023-11-25T02:56:00;5.60;;;2.60;;
71562;SDS011;59391;52.504;13.438;2023-11-25T02:58:26;5.40;;;2.57;;
71562;SDS011;59391;52.504;13.438;2023-11-25T03:00:57;5.72;;;2.72;;
71562;SDS011;59391;52.504;13.438;2023-11-25T03:03:27;7.75;;;3.20;;
71562;SDS011;59391;52.504;13.438;2023-11-25T03:05:53;6.40;;;2.72;;
71562;SDS011;59391;52.504;13.438;2023-11-25T03:08:18;5.20;;;2.83;;
71562;SDS011;59391;52.504;13.438;2023-11-25T03:10:47;5.63;;;2.90;;
71562;SDS011;59391;52.504;13.438;2023-11-25T03:13:15;4.55;;;2.78;;
71562;SDS011;59391;52.504;13.438;2023-11-25T03:15:41;7.30;;;3.08;;
71562;SDS011;59391;52.504;13.438;2023-11-25T03:18:07;6.17;;;3.20;;
71562;SDS011;59391;52.504;13.438;2023-11-25T03:20:34;4.93;;;3.10;;
71562;SDS011;59391;52.504;13.438;2023-11-25T03:23:01;7.25;;;3.60;;
71562;SDS011;59391;52.504;13.438;2023-11-25T03:25:28;5.35;;;3.08;;
71562;SDS011;59391;52.504;13.438;2023-11-25T03:27:56;5.30;;;2.50;;
71562;SDS011;59391;52.504;13.438;2023-11-25T03:30:22;7.07;;;3.03;;
71562;SDS011;59391;52.504;13.438;2023-11-25T03:32:49;6.72;;;2.90;;
71562;SDS011;59391;52.504;13.438;2023-11-25T03:35:15;6.27;;;2.80;;
71562;SDS011;59391;52.504;13.438;2023-11-25T03:37:41;5.55;;;3.00;;
71562;SDS011;59391;52.504;13.438;2023-11-25T03:40:07;6.53;;;3.00;;
71562;SDS011;59391;52.504;13.438;2023-11-25T03:42:38;6.00;;;3.33;;
71562;SDS011;59391;52.504;13.438;2023-11-25T03:45:05;6.47;;;3.00;;
71562;SDS011;59391;52.504;13.438;2023-11-25T03:47:34;7.85;;;3.17;;
71562;SDS011;59391;52.504;13.438;2023-11-25T03:49:59;7.95;;;3.85;;
71562;SDS011;59391;52.504;13.438;2023-11-25T03:52:25;7.87;;;2.93;;
71562;SDS011;59391;52.504;13.438;2023-11-25T03:54:51;6.40;;;2.70;;
71562;SDS011;59391;52.504;13.438;2023-11-25T03:57:18;6.88;;;3.08;;
71562;SDS011;59391;52.504;13.438;2023-11-25T03:59:43;6.97;;;3.20;;
71562;SDS011;59391;52.504;13.438;2023-11-25T04:02:09;4.87;;;2.60;;
71562;SDS011;59391;52.504;13.438;2023-11-25T04:04:35;6.78;;;2.75;;
71562;SDS011;59391;52.504;13.438;2023-11-25T04:07:00;8.07;;;2.73;;
71562;SDS011;59391;52.504;13.438;2023-11-25T04:09:26;5.40;;;2.50;;
71562;SDS011;59391;52.504;13.438;2023-11-25T04:11:51;6.30;;;2.97;;
71562;SDS011;59391;52.504;13.438;2023-11-25T04:14:17;7.43;;;3.50;;
71562;SDS011;59391;52.504;13.438;2023-11-25T04:16:43;6.65;;;2.92;;
71562;SDS011;59391;52.504;13.438;2023-11-25T04:19:09;5.87;;;3.40;;
71562;SDS011;59391;52.504;13.438;2023-11-25T04:21:35;6.28;;;3.50;;
71562;SDS011;59391;52.504;13.438;2023-11-25T04:24:06;6.93;;;3.55;;
71562;SDS011;59391;52.504;13.438;2023-11-25T04:26:36;8.88;;;4.20;;
71562;SDS011;59391;52.504;13.438;2023-11-25T04:29:05;6.87;;;3.27;;
71562;SDS011;59391;52.504;13.438;2023-11-25T04:31:32;7.95;;;3.60;;
71562;SDS011;59391;52.504;13.438;2023-11-25T04:33:58;4.90;;;2.72;;
71562;SDS011;59391;52.504;13.438;2023-11-25T04:36:23;6.60;;;3.10;;
71562;SDS011;59391;52.504;13.438;2023-11-25T04:38:51;9.20;;;3.10;;
71562;SDS011;59391;52.504;13.438;2023-11-25T04:41:18;5.35;;;3.20;;
71562;SDS011;59391;52.504;13.438;2023-11-25T04:43:47;8.52;;;3.45;;
71562;SDS011;59391;52.504;13.438;2023-11-25T04:46:13;10.70;;;3.27;;
71562;SDS011;59391;52.504;13.438;2023-11-25T04:48:40;6.20;;;3.50;;
71562;SDS011;59391;52.504;13.438;2023-11-25T04:51:06;8.82;;;4.10;;
71562;SDS011;59391;52.504;13.438;2023-11-25T04:53:32;7.67;;;3.70;;
71562;SDS011;59391;52.504;13.438;2023-11-25T04:55:57;7.00;;;3.93;;
71562;SDS011;59391;52.504;13.438;2023-11-25T04:58:23;6.40;;;4.13;;
71562;SDS011;59391;52.504;13.438;2023-11-25T05:00:48;11.53;;;4.10;;
71562;SDS011;59391;52.504;13.438;2023-11-25T05:03:14;7.40;;;4.32;;
71562;SDS011;59391;52.504;13.438;2023-11-25T05:05:40;8.70;;;4.27;;
71562;SDS011;59391;52.504;13.438;2023-11-25T05:08:06;10.82;;;4.35;;
71562;SDS011;59391;52.504;13.438;2023-11-25T05:10:31;10.25;;;4.07;;
71562;SDS011;59391;52.504;13.438;2023-11-25T05:12:58;9.32;;;4.45;;
71562;SDS011;59391;52.504;13.438;2023-11-25T05:15:24;10.20;;;4.07;;
71562;SDS011;59391;52.504;13.438;2023-11-25T05:17:50;8.13;;;4.50;;
71562;SDS011;59391;52.504;13.438;2023-11-25T05:20:17;9.48;;;4.32;;
71562;SDS011;59391;52.504;13.438;2023-11-25T05:22:43;7.85;;;3.55;;
71562;SDS011;59391;52.504;13.438;2023-11-25T05:25:09;8.00;;;3.77;;
71562;SDS011;59391;52.504;13.438;2023-11-25T05:27:41;7.18;;;4.05;;
71562;SDS011;59391;52.504;13.438;2023-11-25T05:30:07;8.93;;;4.00;;
71562;SDS011;59391;52.504;13.438;2023-11-25T05:32:38;7.85;;;3.53;;
71562;SDS011;59391;52.504;13.438;2023-11-25T05:35:08;7.60;;;3.50;;
71562;SDS011;59391;52.504;13.438;2023-11-25T05:37:34;10.43;;;3.90;;
71562;SDS011;59391;52.504;13.438;2023-11-25T05:40:00;7.85;;;3.67;;
71562;SDS011;59391;52.504;13.438;2023-11-25T05:42:26;8.40;;;3.73;;
71562;SDS011;59391;52.504;13.438;2023-11-25T05:44:54;7.45;;;3.65;;
71562;SDS011;59391;52.504;13.438;2023-11-25T05:47:21;8.90;;;3.28;;
71562;SDS011;59391;52.504;13.438;2023-11-25T05:49:47;7.77;;;3.50;;
71562;SDS011;59391;52.504;13.438;2023-11-25T05:52:13;7.68;;;2.70;;
71562;SDS011;59391;52.504;13.438;2023-11-25T05:54:39;8.68;;;3.40;;
71562;SDS011;59391;52.504;13.438;2023-11-25T05:57:04;6.60;;;3.00;;
71562;SDS011;59391;52.504;13.438;2023-11-25T05:59:30;7.23;;;3.30;;
71562;SDS011;59391;52.504;13.438;2023-11-25T06:01:56;8.77;;;3.10;;
71562;SDS011;59391;52.504;13.438;2023-11-25T06:04:21;7.00;;;3.40;;
71562;SDS011;59391;52.504;13.438;2023-11-25T06:06:47;9.43;;;3.27;;
71562;SDS011;59391;52.504;13.438;2023-11-25T06:09:13;7.15;;;3.00;;
71562;SDS011;59391;52.504;13.438;2023-11-25T06:11:39;8.15;;;3.10;;
71562;SDS011;59391;52.504;13.438;2023-11-25T06:14:05;6.53;;;3.30;;
71562;SDS011;59391;52.504;13.438;2023-11-25T06:16:31;7.85;;;3.60;;
71562;SDS011;59391;52.504;13.438;2023-11-25T06:18:57;5.90;;;2.73;;
71562;SDS011;59391;52.504;13.438;2023-11-25T06:21:22;7.03;;;3.22;;
71562;SDS011;59391;52.504;13.438;2023-11-25T06:23:48;7.10;;;3.23;;
71562;SDS011;59391;52.504;13.438;2023-11-25T06:26:15;8.30;;;2.78;;
71562;SDS011;59391;52.504;13.438;2023-11-25T06:28:46;8.82;;;3.47;;
71562;SDS011;59391;52.504;13.438;2023-11-25T06:31:13;7.70;;;3.22;;
71562;SDS011;59391;52.504;13.438;2023-11-25T06:33:40;7.45;;;3.22;;
71562;SDS011;59391;52.504;13.438;2023-11-25T06:36:07;9.57;;;3.43;;
71562;SDS011;59391;52.504;13.438;2023-11-25T06:38:33;5.15;;;2.70;;
71562;SDS011;59391;52.504;13.438;2023-11-25T06:40:59;7.53;;;3.40;;
71562;SDS011;59391;52.504;13.438;2023-11-25T06:43:28;7.67;;;3.40;;
71562;SDS011;59391;52.504;13.438;2023-11-25T06:45:54;8.38;;;3.70;;
71562;SDS011;59391;52.504;13.438;2023-11-25T06:48:20;8.15;;;3.30;;
71562;SDS011;59391;52.504;13.438;2023-11-25T06:50:50;6.05;;;3.63;;
71562;SDS011;59391;52.504;13.438;2023-11-25T06:53:17;8.07;;;3.88;;
71562;SDS011;59391;52.504;13.438;2023-11-25T06:55:42;6.57;;;3.20;;
71562;SDS011;59391;52.504;13.438;2023-11-25T06:58:09;7.10;;;3.40;;
71562;SDS011;59391;52.504;13.438;2023-11-25T07:00:36;6.47;;;3.33;;
71562;SDS011;59391;52.504;13.438;2023-11-25T07:03:03;8.43;;;3.80;;
71562;SDS011;59391;52.504;13.438;2023-11-25T07:05:29;6.65;;;3.65;;
71562;SDS011;59391;52.504;13.438;2023-11-25T07:07:55;6.70;;;3.50;;
71562;SDS011;59391;52.504;13.438;2023-11-25T07:10:21;6.45;;;3.25;;
71562;SDS011;59391;52.504;13.438;2023-11-25T07:12:47;10.73;;;3.30;;
71562;SDS011;59391;52.504;13.438;2023-11-25T07:15:12;6.83;;;3.17;;
71562;SDS011;59391;52.504;13.438;2023-11-25T07:17:39;10.77;;;3.40;;
71562;SDS011;59391;52.504;13.438;2023-11-25T07:20:06;7.93;;;3.70;;
71562;SDS011;59391;52.504;13.438;2023-11-25T07:22:40;4.70;;;2.92;;
71562;SDS011;59391;52.504;13.438;2023-11-25T07:25:06;8.32;;;3.30;;
71562;SDS011;59391;52.504;13.438;2023-11-25T07:27:37;8.33;;;3.43;;
71562;SDS011;59391;52.504;13.438;2023-11-25T07:30:07;6.63;;;3.45;;
71562;SDS011;59391;52.504;13.438;2023-11-25T07:32:36;7.53;;;3.47;;
71562;SDS011;59391;52.504;13.438;2023-11-25T07:35:02;10.85;;;3.70;;
71562;SDS011;59391;52.504;13.438;2023-11-25T07:37:33;6.10;;;3.50;;
71562;SDS011;59391;52.504;13.438;2023-11-25T07:40:00;8.67;;;3.23;;
71562;SDS011;59391;52.504;13.438;2023-11-25T07:42:28;8.23;;;3.60;;
71562;SDS011;59391;52.504;13.438;2023-11-25T07:44:54;8.82;;;3.50;;
71562;SDS011;59391;52.504;13.438;2023-11-25T07:47:20;7.57;;;3.63;;
71562;SDS011;59391;52.504;13.438;2023-11-25T07:49:47;10.52;;;3.88;;
71562;SDS011;59391;52.504;13.438;2023-11-25T07:52:13;8.88;;;3.30;;
71562;SDS011;59391;52.504;13.438;2023-11-25T07:54:40;6.43;;;3.23;;
71562;SDS011;59391;52.504;13.438;2023-11-25T07:57:06;8.23;;;3.30;;
71562;SDS011;59391;52.504;13.438;2023-11-25T07:59:33;8.00;;;3.40;;
71562;SDS011;59391;52.504;13.438;2023-11-25T08:01:59;12.38;;;3.60;;
71562;SDS011;59391;52.504;13.438;2023-11-25T08:04:25;7.80;;;3.50;;
71562;SDS011;59391;52.504;13.438;2023-11-25T08:06:51;7.97;;;3.05;;
71562;SDS011;59391;52.504;13.438;2023-11-25T08:09:16;8.97;;;3.20;;
71562;SDS011;59391;52.504;13.438;2023-11-25T08:11:43;6.25;;;3.20;;
71562;SDS011;59391;52.504;13.438;2023-11-25T08:14:09;7.20;;;3.17;;
71562;SDS011;59391;52.504;13.438;2023-11-25T08:16:34;8.90;;;3.63;;
71562;SDS011;59391;52.504;13.438;2023-11-25T08:19:00;7.40;;;3.25;;
71562;SDS011;59391;52.504;13.438;2023-11-25T08:21:26;9.20;;;3.57;;
71562;SDS011;59391;52.504;13.438;2023-11-25T08:23:51;7.67;;;3.40;;
71562;SDS011;59391;52.504;13.438;2023-11-25T08:26:18;9.52;;;4.03;;
71562;SDS011;59391;52.504;13.438;2023-11-25T08:28:50;7.30;;;3.72;;
71562;SDS011;59391;52.504;13.438;2023-11-25T08:31:18;8.07;;;3.00;;
71562;SDS011;59391;52.504;13.438;2023-11-25T08:33:45;7.55;;;3.58;;
71562;SDS011;59391;52.504;13.438;2023-11-25T08:36:11;7.78;;;3.45;;
71562;SDS011;59391;52.504;13.438;2023-11-25T08:38:38;9.30;;;3.17;;
71562;SDS011;59391;52.504;13.438;2023-11-25T08:41:04;7.03;;;3.10;;
71562;SDS011;59391;52.504;13.438;2023-11-25T08:43:39;8.40;;;3.58;;
71562;SDS011;59391;52.504;13.438;2023-11-25T08:46:09;8.18;;;3.63;;
71562;SDS011;59391;52.504;13.438;2023-11-25T08:48:35;8.32;;;3.63;;
71562;SDS011;59391;52.504;13.438;2023-11-25T08:51:01;9.30;;;3.20;;
71562;SDS011;59391;52.504;13.438;2023-11-25T08:53:30;8.10;;;3.35;;
71562;SDS011;59391;52.504;13.438;2023-11-25T08:55:56;6.95;;;3.20;;
71562;SDS011;59391;52.504;13.438;2023-11-25T08:58:24;7.32;;;3.20;;
71562;SDS011;59391;52.504;13.438;2023-11-25T09:00:51;7.93;;;3.30;;
71562;SDS011;59391;52.504;13.438;2023-11-25T09:03:17;8.23;;;3.55;;
71562;SDS011;59391;52.504;13.438;2023-11-25T09:05:46;6.93;;;3.15;;
71562;SDS011;59391;52.504;13.438;2023-11-25T09:08:13;8.45;;;3.60;;
71562;SDS011;59391;52.504;13.438;2023-11-25T09:10:39;7.20;;;3.10;;
71562;SDS011;59391;52.504;13.438;2023-11-25T09:13:05;9.45;;;2.80;;
71562;SDS011;59391;52.504;13.438;2023-11-25T09:15:30;6.85;;;3.28;;
71562;SDS011;59391;52.504;13.438;2023-11-25T09:17:56;9.50;;;3.23;;
71562;SDS011;59391;52.504;13.438;2023-11-25T09:20:22;6.60;;;3.25;;
71562;SDS011;59391;52.504;13.438;2023-11-25T09:22:49;6.72;;;3.10;;
71562;SDS011;59391;52.504;13.438;2023-11-25T09:25:18;6.70;;;3.07;;
71562;SDS011;59391;52.504;13.438;2023-11-25T09:27:45;7.18;;;3.10;;
71562;SDS011;59391;52.504;13.438;2023-11-25T09:30:12;7.47;;;3.15;;
71562;SDS011;59391;52.504;13.438;2023-11-25T09:32:39;7.03;;;3.45;;
71562;SDS011;59391;52.504;13.438;2023-11-25T09:35:06;7.30;;;3.08;;
71562;SDS011;59391;52.504;13.438;2023-11-25T09:37:35;6.53;;;2.90;;
71562;SDS011;59391;52.504;13.438;2023-11-25T09:40:05;6.65;;;3.45;;
71562;SDS011;59391;52.504;13.438;2023-11-25T09:42:38;6.30;;;3.20;;
71562;SDS011;59391;52.504;13.438;2023-11-25T09:45:04;6.40;;;3.20;;
71562;SDS011;59391;52.504;13.438;2023-11-25T09:47:30;6.93;;;3.17;;
71562;SDS011;59391;52.504;13.438;2023-11-25T09:49:56;6.68;;;3.75;;
71562;SDS011;59391;52.504;13.438;2023-11-25T09:52:21;6.83;;;3.40;;
71562;SDS011;59391;52.504;13.438;2023-11-25T09:54:54;8.68;;;3.60;;
71562;SDS011;59391;52.504;13.438;2023-11-25T09:57:23;8.37;;;4.27;;
71562;SDS011;59391;52.504;13.438;2023-11-25T09:59:58;7.25;;;3.90;;
71562;SDS011;59391;52.504;13.438;2023-11-25T10:02:25;8.60;;;4.28;;
71562;SDS011;59391;52.504;13.438;2023-11-25T10:04:55;6.97;;;3.90;;
71562;SDS011;59391;52.504;13.438;2023-11-25T10:07:22;8.75;;;4.13;;
71562;SDS011;59391;52.504;13.438;2023-11-25T10:09:48;7.53;;;3.80;;
71562;SDS011;59391;52.504;13.438;2023-11-25T10:12:14;9.93;;;4.43;;
71562;SDS011;59391;52.504;13.438;2023-11-25T10:14:42;8.32;;;3.95;;
71562;SDS011;59391;52.504;13.438;2023-11-25T10:17:18;10.52;;;3.60;;
71562;SDS011;59391;52.504;13.438;2023-11-25T10:19:49;8.38;;;4.10;;
71562;SDS011;59391;52.504;13.438;2023-11-25T10:22:28;11.63;;;4.00;;
71562;SDS011;59391;52.504;13.438;2023-11-25T10:24:53;9.98;;;4.20;;
71562;SDS011;59391;52.504;13.438;2023-11-25T10:27:20;7.95;;;4.10;;
71562;SDS011;59391;52.504;13.438;2023-11-25T10:29:47;12.10;;;4.57;;
71562;SDS011;59391;52.504;13.438;2023-11-25T10:32:14;6.55;;;3.90;;
71562;SDS011;59391;52.504;13.438;2023-11-25T10:34:40;9.77;;;4.07;;
71562;SDS011;59391;52.504;13.438;2023-11-25T10:37:05;7.10;;;3.47;;
71562;SDS011;59391;52.504;13.438;2023-11-25T10:39:33;12.10;;;4.43;;
71562;SDS011;59391;52.504;13.438;2023-11-25T10:42:03;9.98;;;4.20;;
71562;SDS011;59391;52.504;13.438;2023-11-25T10:44:33;10.70;;;4.30;;
71562;SDS011;59391;52.504;13.438;2023-11-25T10:46:59;9.23;;;4.20;;
71562;SDS011;59391;52.504;13.438;2023-11-25T10:49:27;8.95;;;3.97;;
71562;SDS011;59391;52.504;13.438;2023-11-25T10:51:59;9.73;;;4.72;;
71562;SDS011;59391;52.504;13.438;2023-11-25T10:54:31;8.25;;;4.38;;
71562;SDS011;59391;52.504;13.438;2023-11-25T10:56:59;10.02;;;5.03;;
71562;SDS011;59391;52.504;13.438;2023-11-25T10:59:32;11.37;;;5.07;;
71562;SDS011;59391;52.504;13.438;2023-11-25T11:01:59;13.93;;;5.30;;
71562;SDS011;59391;52.504;13.438;2023-11-25T11:04:38;8.93;;;4.05;;
71562;SDS011;59391;52.504;13.438;2023-11-25T11:07:15;9.82;;;4.78;;
71562;SDS011;59391;52.504;13.438;2023-11-25T11:09:42;9.75;;;4.57;;
71562;SDS011;59391;52.504;13.438;2023-11-25T11:12:16;9.40;;;4.73;;
71562;SDS011;59391;52.504;13.438;2023-11-25T11:14:58;10.30;;;5.13;;
71562;SDS011;59391;52.504;13.438;2023-11-25T11:17:37;7.80;;;4.15;;
71562;SDS011;59391;52.504;13.438;2023-11-25T11:20:31;9.27;;;5.07;;
71562;SDS011;59391;52.504;13.438;2023-11-25T11:23:04;9.82;;;4.90;;
71562;SDS011;59391;52.504;13.438;2023-11-25T11:25:35;8.33;;;5.00;;
71562;SDS011;59391;52.504;13.438;2023-11-25T11:28:20;9.25;;;4.55;;
71562;SDS011;59391;52.504;13.438;2023-11-25T11:31:11;8.75;;;5.07;;
71562;SDS011;59391;52.504;13.438;2023-11-25T11:34:29;9.27;;;4.47;;
71562;SDS011;59391;52.504;13.438;2023-11-25T11:36:57;7.60;;;4.78;;
71562;SDS011;59391;52.504;13.438;2023-11-25T11:39:30;7.57;;;3.97;;
71562;SDS011;59391;52.504;13.438;2023-11-25T11:44:57;7.37;;;4.33;;
71562;SDS011;59391;52.504;13.438;2023-11-25T11:47:36;7.45;;;5.00;;
71562;SDS011;59391;52.504;13.438;2023-11-25T11:50:09;8.82;;;4.50;;
71562;SDS011;59391;52.504;13.438;2023-11-25T11:58:15;8.70;;;4.95;;
71562;SDS011;59391;52.504;13.438;2023-11-25T12:03:25;7.30;;;4.93;;
71562;SDS011;59391;52.504;13.438;2023-11-25T12:05:52;8.93;;;4.95;;
71562;SDS011;59391;52.504;13.438;2023-11-25T12:08:19;7.00;;;5.00;;
71562;SDS011;59391;52.504;13.438;2023-11-25T12:10:46;7.75;;;4.43;;
71562;SDS011;59391;52.504;13.438;2023-11-25T12:13:23;6.47;;;4.25;;
71562;SDS011;59391;52.504;13.438;2023-11-25T12:15:58;9.05;;;5.32;;
71562;SDS011;59391;52.504;13.438;2023-11-25T12:18:28;8.80;;;5.20;;
71562;SDS011;59391;52.504;13.438;2023-11-25T12:20:59;5.13;;;3.60;;
71562;SDS011;59391;52.504;13.438;2023-11-25T12:23:27;4.57;;;3.25;;
71562;SDS011;59391;52.504;13.438;2023-11-25T12:25:54;5.35;;;3.75;;
71562;SDS011;59391;52.504;13.438;2023-11-25T12:28:22;5.50;;;3.60;;
71562;SDS011;59391;52.504;13.438;2023-11-25T12:30:48;7.07;;;4.50;;
71562;SDS011;59391;52.504;13.438;2023-11-25T12:33:18;6.43;;;3.97;;
71562;SDS011;59391;52.504;13.438;2023-11-25T12:35:44;6.30;;;3.92;;
71562;SDS011;59391;52.504;13.438;2023-11-25T12:38:11;5.38;;;4.15;;
71562;SDS011;59391;52.504;13.438;2023-11-25T12:40:38;7.05;;;4.35;;
71562;SDS011;59391;52.504;13.438;2023-11-25T12:43:08;6.75;;;4.28;;
71562;SDS011;59391;52.504;13.438;2023-11-25T12:45:36;5.43;;;3.90;;
71562;SDS011;59391;52.504;13.438;2023-11-25T12:48:06;5.47;;;3.97;;
71562;SDS011;59391;52.504;13.438;2023-11-25T12:53:29;6.45;;;4.50;;
71562;SDS011;59391;52.504;13.438;2023-11-25T12:55:54;5.17;;;4.10;;
71562;SDS011;59391;52.504;13.438;2023-11-25T12:58:22;6.07;;;4.13;;
71562;SDS011;59391;52.504;13.438;2023-11-25T13:00:52;5.35;;;4.05;;
71562;SDS011;59391;52.504;13.438;2023-11-25T13:03:26;5.63;;;4.10;;
71562;SDS011;59391;52.504;13.438;2023-11-25T13:05:58;6.33;;;4.53;;
71562;SDS011;59391;52.504;13.438;2023-11-25T13:08:35;7.18;;;5.03;;
71562;SDS011;59391;52.504;13.438;2023-11-25T13:11:06;7.95;;;4.63;;
71562;SDS011;59391;52.504;13.438;2023-11-25T13:13:34;6.97;;;4.90;;
71562;SDS011;59391;52.504;13.438;2023-11-25T13:16:01;5.30;;;4.13;;
71562;SDS011;59391;52.504;13.438;2023-11-25T13:18:29;6.70;;;4.80;;
71562;SDS011;59391;52.504;13.438;2023-11-25T13:20:58;6.32;;;4.40;;
71562;SDS011;59391;52.504;13.438;2023-11-25T13:23:27;5.95;;;4.47;;
71562;SDS011;59391;52.504;13.438;2023-11-25T13:25:52;6.78;;;5.05;;
71562;SDS011;59391;52.504;13.438;2023-11-25T13:28:18;6.03;;;4.40;;
71562;SDS011;59391;52.504;13.438;2023-11-25T13:30:45;6.72;;;4.47;;
71562;SDS011;59391;52.504;13.438;2023-11-25T13:33:11;6.60;;;4.47;;
71562;SDS011;59391;52.504;13.438;2023-11-25T13:35:39;6.73;;;4.77;;
71562;SDS011;59391;52.504;13.438;2023-11-25T13:38:05;6.57;;;5.15;;
71562;SDS011;59391;52.504;13.438;2023-11-25T13:40:31;7.07;;;4.72;;
71562;SDS011;59391;52.504;13.438;2023-11-25T13:43:03;7.23;;;4.47;;
71562;SDS011;59391;52.504;13.438;2023-11-25T13:45:30;7.70;;;4.45;;
71562;SDS011;59391;52.504;13.438;2023-11-25T13:47:57;6.55;;;4.05;;
71562;SDS011;59391;52.504;13.438;2023-11-25T13:50:25;7.57;;;4.85;;
71562;SDS011;59391;52.504;13.438;2023-11-25T13:52:52;8.50;;;4.45;;
71562;SDS011;59391;52.504;13.438;2023-11-25T13:55:18;8.97;;;5.13;;
71562;SDS011;59391;52.504;13.438;2023-11-25T13:57:46;8.00;;;4.50;;
71562;SDS011;59391;52.504;13.438;2023-11-25T14:00:12;8.20;;;4.60;;
71562;SDS011;59391;52.504;13.438;2023-11-25T14:02:47;6.15;;;4.32;;
71562;SDS011;59391;52.504;13.438;2023-11-25T14:05:14;6.82;;;4.35;;
71562;SDS011;59391;52.504;13.438;2023-11-25T14:07:40;6.63;;;4.77;;
71562;SDS011;59391;52.504;13.438;2023-11-25T14:10:09;7.10;;;5.18;;
71562;SDS011;59391;52.504;13.438;2023-11-25T14:12:39;7.40;;;4.93;;
71562;SDS011;59391;52.504;13.438;2023-11-25T14:15:06;6.85;;;4.80;;
71562;SDS011;59391;52.504;13.438;2023-11-25T14:17:34;7.17;;;4.80;;
71562;SDS011;59391;52.504;13.438;2023-11-25T14:20:01;6.82;;;4.80;;
71562;SDS011;59391;52.504;13.438;2023-11-25T14:22:30;6.97;;;5.20;;
71562;SDS011;59391;52.504;13.438;2023-11-25T14:24:55;7.38;;;4.65;;
71562;SDS011;59391;52.504;13.438;2023-11-25T14:27:22;8.30;;;5.55;;
71562;SDS011;59391;52.504;13.438;2023-11-25T14:29:47;9.13;;;6.00;;
71562;SDS011;59391;52.504;13.438;2023-11-25T14:32:13;10.27;;;5.77;;
71562;SDS011;59391;52.504;13.438;2023-11-25T14:34:39;13.15;;;8.35;;
71562;SDS011;59391;52.504;13.438;2023-11-25T14:37:05;10.60;;;5.77;;
71562;SDS011;59391;52.504;13.438;2023-11-25T14:39:31;10.13;;;6.00;;
71562;SDS011;59391;52.504;13.438;2023-11-25T14:42:02;14.15;;;7.07;;
71562;SDS011;59391;52.504;13.438;2023-11-25T14:44:29;8.90;;;6.45;;
71562;SDS011;59391;52.504;13.438;2023-11-25T14:46:54;12.80;;;7.70;;
71562;SDS011;59391;52.504;13.438;2023-11-25T14:49:21;12.93;;;7.25;;
71562;SDS011;59391;52.504;13.438;2023-11-25T14:51:49;11.55;;;6.70;;